Time;durP1;ratioP1;P1;durP2;ratioP2;P2;SDS_P1;SDS_P2;PMS_P1;PMS_P2;Temp;Humidity;BMP_temperature;BMP_pressure;BME280_temperature;BME280_humidity;BME280_pressure;Samples;Min_cycle;Max_cycle;Signal;HPM_P1;HPM_P2
2020/12/22 00:00:01;;;;;;;22.48;11.30;;;;;;;4.91;96.08;97988.06;5027848;28;20026;-61
2020/12/22 00:02:26;;;;;;;23.63;11.75;;;;;;;5.40;95.74;98062.94;5027657;28;20385;-62
2020/12/22 00:04:52;;;;;;;23.67;13.32;;;;;;;5.54;95.99;98091.16;5026076;28;20033;-62
2020/12/22 00:07:17;;;;;;;23.58;12.35;;;;;;;4.52;95.16;97931.88;5027645;28;20038;-64
2020/12/22 00:09:42;;;;;;;28.83;14.38;;;;;;;5.57;95.14;98089.72;5027668;28;20038;-62
2020/12/22 00:12:15;;;;;;;32.55;16.65;;;;;;;4.68;94.38;97954.28;5027341;28;20112;-62
2020/12/22 00:14:44;;;;;;;44.72;20.17;;;;;;;5.13;94.30;98053.97;5025936;28;20425;-62
2020/12/22 00:17:10;;;;;;;52.97;22.58;;;;;;;5.55;94.61;98098.28;5025534;28;20037;-62
2020/12/22 00:19:36;;;;;;;46.45;21.65;;;;;;;4.86;93.76;98045.81;5025795;28;20040;-62
2020/12/22 00:22:01;;;;;;;42.17;19.73;;;;;;;5.52;94.89;98098.06;5027197;28;20038;-62
2020/12/22 00:24:27;;;;;;;42.97;20.10;;;;;;;5.50;94.81;98105.84;5027294;28;20033;-62
2020/12/22 00:26:52;;;;;;;42.40;19.48;;;;;;;5.53;94.41;98106.00;5027173;28;20479;-63
2020/12/22 00:29:17;;;;;;;43.00;20.27;;;;;;;4.93;94.24;98005.03;5025939;28;20091;-62
2020/12/22 00:31:43;;;;;;;43.60;19.05;;;;;;;4.82;95.11;98017.38;5026814;28;20033;-62
2020/12/22 00:34:09;;;;;;;38.03;16.17;;;;;;;5.14;96.02;98102.31;5027194;28;20029;-62
2020/12/22 00:36:34;;;;;;;35.25;16.52;;;;;;;5.02;97.47;98110.25;5026764;28;20416;-62
2020/12/22 00:38:59;;;;;;;41.30;17.77;;;;;;;4.62;99.18;98065.28;5027145;28;20064;-62
2020/12/22 00:41:25;;;;;;;39.85;19.33;;;;;;;4.98;99.17;98109.25;5026674;28;20037;-63
2020/12/22 00:43:50;;;;;;;39.55;18.52;;;;;;;4.51;100.00;98075.69;5027012;28;20045;-63
2020/12/22 00:46:16;;;;;;;49.10;21.90;;;;;;;4.41;100.00;98095.06;5027017;28;20041;-62
2020/12/22 00:48:46;;;;;;;48.13;21.85;;;;;;;4.26;100.00;98098.13;5025664;28;20025;-62
2020/12/22 00:51:19;;;;;;;48.83;21.90;;;;;;;4.25;100.00;98101.97;5026782;28;20580;-62
2020/12/22 00:53:45;;;;;;;53.50;23.05;;;;;;;3.71;100.00;97969.56;5025530;28;20120;-62
2020/12/22 00:56:12;;;;;;;49.25;22.25;;;;;;;3.95;100.00;98006.63;5026216;28;20116;-62
2020/12/22 00:58:37;;;;;;;50.15;21.98;;;;;;;4.80;100.00;98091.81;5026857;28;20087;-62
2020/12/22 01:01:03;;;;;;;41.75;20.45;;;;;;;4.32;100.00;98053.03;5025096;28;20483;-62
2020/12/22 01:03:28;;;;;;;44.35;20.65;;;;;;;4.82;99.77;98091.50;5024951;28;20556;-62
2020/12/22 01:05:53;;;;;;;50.35;20.45;;;;;;;4.84;98.78;98092.00;5026684;28;20088;-61
2020/12/22 01:08:19;;;;;;;50.78;21.38;;;;;;;4.23;99.85;98002.78;5025659;28;20539;-62
2020/12/22 01:10:44;;;;;;;48.50;21.13;;;;;;;4.52;99.20;98033.41;5024563;28;20039;-62
2020/12/22 01:13:10;;;;;;;51.15;22.40;;;;;;;4.57;99.18;98066.22;5025123;28;20049;-62
2020/12/22 01:15:35;;;;;;;48.58;21.02;;;;;;;4.73;99.18;98068.66;5024738;28;20087;-62
2020/12/22 01:18:00;;;;;;;52.83;21.25;;;;;;;4.91;98.62;98092.38;5024695;28;20073;-62
2020/12/22 01:20:26;;;;;;;45.20;21.30;;;;;;;4.75;98.58;98071.88;5024627;28;20041;-62
2020/12/22 01:22:51;;;;;;;44.88;21.02;;;;;;;4.98;97.91;98092.78;5026199;28;20484;-62
2020/12/22 01:25:16;;;;;;;41.28;20.27;;;;;;;5.09;97.24;98094.19;5024540;28;20099;-63
2020/12/22 01:27:42;;;;;;;43.58;21.08;;;;;;;4.64;97.38;98024.66;5026135;28;20688;-62
2020/12/22 01:30:07;;;;;;;46.88;21.02;;;;;;;5.01;96.91;98092.16;5024559;28;20080;-62
2020/12/22 01:32:33;;;;;;;46.22;20.40;;;;;;;5.05;97.07;98093.16;5026322;28;20033;-62
2020/12/22 01:34:58;;;;;;;42.50;20.58;;;;;;;4.51;95.89;98007.09;5024604;28;20040;-64
2020/12/22 01:37:24;;;;;;;48.33;20.73;;;;;;;5.26;95.30;98127.28;5026000;28;20033;-62
2020/12/22 01:39:49;;;;;;;49.58;20.98;;;;;;;4.65;96.16;97999.63;5024493;28;20044;-62
2020/12/22 01:42:14;;;;;;;46.28;20.42;;;;;;;5.21;95.58;98103.50;5025775;28;20095;-63
2020/12/22 01:44:40;;;;;;;39.65;18.77;;;;;;;4.95;96.12;98087.91;5025660;28;20390;-62
2020/12/22 01:47:05;;;;;;;44.60;19.20;;;;;;;4.55;95.94;98016.31;5024109;28;20034;-62
2020/12/22 01:49:31;;;;;;;43.72;20.05;;;;;;;5.01;96.59;98064.72;5025765;28;20480;-63
2020/12/22 01:51:58;;;;;;;54.53;20.98;;;;;;;4.78;97.94;98071.25;5025160;28;20075;-62
2020/12/22 01:54:27;;;;;;;45.40;20.95;;;;;;;4.65;98.61;98073.72;5025750;28;20045;-62
2020/12/22 01:56:53;;;;;;;53.63;21.33;;;;;;;4.33;100.00;98075.78;5025500;28;20638;-61
2020/12/22 01:59:19;;;;;;;55.50;21.30;;;;;;;4.01;100.00;98049.28;5025467;28;20116;-61
2020/12/22 02:01:45;;;;;;;60.67;23.67;;;;;;;4.08;100.00;98074.34;5024991;28;20121;-62
2020/12/22 02:04:11;;;;;;;59.88;23.42;;;;;;;4.00;100.00;98072.31;5025294;28;20037;-62
2020/12/22 02:06:37;;;;;;;55.78;21.95;;;;;;;3.58;100.00;98006.78;5023464;28;20087;-62
2020/12/22 02:09:05;;;;;;;54.45;22.27;;;;;;;4.40;100.00;98081.66;5024033;28;20078;-62
2020/12/22 02:11:32;;;;;;;54.97;23.30;;;;;;;3.23;100.00;98007.41;5023498;28;20041;-62
2020/12/22 02:13:59;;;;;;;51.38;21.58;;;;;;;3.73;100.00;97957.19;5025264;28;20294;-62
2020/12/22 02:16:25;;;;;;;50.45;21.85;;;;;;;4.69;100.00;98069.22;5025024;28;20044;-62
2020/12/22 02:18:52;;;;;;;50.65;22.80;;;;;;;4.22;100.00;98003.06;5023070;28;20533;-62
2020/12/22 02:21:18;;;;;;;60.40;23.67;;;;;;;3.45;100.00;97939.09;5025324;28;20114;-62
2020/12/22 02:23:44;;;;;;;62.25;23.35;;;;;;;4.48;100.00;98073.53;5025238;28;20037;-62
2020/12/22 02:26:10;;;;;;;53.90;22.20;;;;;;;4.53;100.00;98078.94;5023722;28;20033;-63
2020/12/22 02:28:35;;;;;;;50.42;22.33;;;;;;;4.58;100.00;98070.56;5025366;28;20060;-62
2020/12/22 02:31:02;;;;;;;47.30;21.20;;;;;;;4.28;100.00;98002.63;5024642;28;20025;-63
2020/12/22 02:33:28;;;;;;;53.75;22.42;;;;;;;4.53;100.00;98084.41;5025406;28;20037;-62
2020/12/22 02:35:54;;;;;;;51.67;22.45;;;;;;;4.77;100.00;98075.94;5023059;28;20021;-63
2020/12/22 02:38:20;;;;;;;49.95;21.58;;;;;;;4.65;100.00;98051.78;5008921;28;20133;-64
2020/12/22 02:40:46;;;;;;;53.15;22.98;;;;;;;4.68;100.00;98074.25;5005448;28;20036;-63
2020/12/22 02:43:13;;;;;;;54.25;21.33;;;;;;;4.55;100.00;98012.78;5003826;28;20050;-63
2020/12/22 02:45:39;;;;;;;58.15;22.92;;;;;;;4.41;100.00;97990.84;5003585;28;20504;-63
2020/12/22 02:48:05;;;;;;;50.72;22.35;;;;;;;3.77;100.00;97892.44;5005302;28;20033;-62
2020/12/22 02:50:31;;;;;;;48.78;21.15;;;;;;;4.59;99.16;97992.66;5012080;28;20029;-63
2020/12/22 02:52:56;;;;;;;54.85;23.50;;;;;;;3.95;98.65;97898.94;5023073;28;20040;-64
2020/12/22 02:55:22;;;;;;;49.53;21.50;;;;;;;5.03;98.36;98073.44;5022857;28;20554;-62
2020/12/22 02:57:47;;;;;;;49.97;22.65;;;;;;;4.87;96.97;98039.22;5022934;28;20067;-62
2020/12/22 03:00:13;;;;;;;47.05;20.05;;;;;;;4.92;98.29;98103.06;5022681;28;20040;-62
2020/12/22 03:02:38;;;;;;;49.03;21.15;;;;;;;4.28;100.00;98024.56;5023121;28;20689;-63
2020/12/22 03:05:04;;;;;;;54.00;22.70;;;;;;;4.29;100.00;98037.19;5022544;28;20033;-62
2020/12/22 03:07:29;;;;;;;53.97;22.30;;;;;;;4.73;100.00;98087.84;5024531;28;20064;-62
2020/12/22 03:09:54;;;;;;;52.70;22.85;;;;;;;4.54;100.00;98044.88;5022833;28;20041;-63
2020/12/22 03:12:20;;;;;;;55.58;22.55;;;;;;;4.85;100.00;98088.13;5022722;28;20505;-63
2020/12/22 03:14:45;;;;;;;53.63;21.75;;;;;;;4.60;100.00;98071.09;5022963;28;20160;-63
2020/12/22 03:17:11;;;;;;;62.97;24.50;;;;;;;4.28;100.00;98086.84;5024313;28;20095;-62
2020/12/22 03:19:38;;;;;;;57.58;23.15;;;;;;;3.80;100.00;97957.59;5022888;28;20044;-63
2020/12/22 03:22:04;;;;;;;53.95;23.20;;;;;;;4.34;100.00;98056.28;5024268;28;20048;-63
2020/12/22 03:24:30;;;;;;;56.22;22.80;;;;;;;4.20;100.00;98032.72;5024670;28;20123;-63
2020/12/22 03:26:55;;;;;;;58.65;22.80;;;;;;;4.61;100.00;98077.41;5022998;28;20037;-63
2020/12/22 03:29:21;;;;;;;60.72;24.42;;;;;;;4.35;100.00;98013.19;5022771;28;20029;-63
2020/12/22 03:31:46;;;;;;;67.53;25.88;;;;;;;4.47;100.00;98047.22;5025910;28;20508;-63
2020/12/22 03:34:11;;;;;;;65.38;24.90;;;;;;;4.25;100.00;97989.53;5026658;28;20044;-63
2020/12/22 03:36:37;;;;;;;61.13;24.40;;;;;;;4.87;100.00;98074.91;5026325;28;20040;-62
2020/12/22 03:39:02;;;;;;;63.15;26.42;;;;;;;4.96;100.00;98078.56;5028189;28;20060;-63
2020/12/22 03:41:28;;;;;;;68.28;26.75;;;;;;;4.35;100.00;97985.78;5027690;28;20084;-62
2020/12/22 03:43:54;;;;;;;78.05;31.35;;;;;;;5.02;100.00;98077.31;5028105;28;20038;-64
2020/12/22 03:46:19;;;;;;;68.78;28.50;;;;;;;5.01;100.00;98071.00;5026070;28;20722;-62
2020/12/22 03:48:45;;;;;;;68.53;28.00;;;;;;;4.84;100.00;98043.38;5026762;28;20412;-63
2020/12/22 03:51:11;;;;;;;62.88;25.33;;;;;;;4.54;100.00;97990.00;5025937;28;20581;-62
2020/12/22 03:53:36;;;;;;;59.58;25.42;;;;;;;5.00;100.00;98063.06;5026212;28;20499;-62
2020/12/22 03:56:02;;;;;;;55.63;22.25;;;;;;;4.99;100.00;98066.94;5027987;28;20037;-62
2020/12/22 03:58:27;;;;;;;63.80;25.08;;;;;;;4.65;99.24;98013.34;5027680;28;20091;-62
2020/12/22 04:00:53;;;;;;;74.18;34.33;;;;;;;4.99;100.00;98066.94;5027652;28;20033;-62
2020/12/22 04:03:18;;;;;;;68.20;27.35;;;;;;;5.07;100.00;98074.44;5027724;28;20034;-62
2020/12/22 04:05:44;;;;;;;68.60;27.23;;;;;;;5.15;98.73;98066.28;5026021;28;20123;-62
2020/12/22 04:08:09;;;;;;;66.38;29.08;;;;;;;4.99;98.76;98061.47;5027529;28;20059;-62
2020/12/22 04:10:34;;;;;;;64.50;25.45;;;;;;;4.34;98.98;97938.34;5027437;28;20095;-61
2020/12/22 04:13:00;;;;;;;71.00;31.77;;;;;;;4.88;99.49;98029.88;5026000;28;20045;-62
2020/12/22 04:15:25;;;;;;;72.15;30.38;;;;;;;4.56;100.00;97982.28;5027526;28;20029;-63
2020/12/22 04:17:51;;;;;;;77.80;30.58;;;;;;;4.97;100.00;98047.22;5027783;28;20116;-62
2020/12/22 04:20:16;;;;;;;125.30;64.35;;;;;;;4.94;99.53;98067.06;5027605;28;20034;-62
2020/12/22 04:22:42;;;;;;;82.13;38.60;;;;;;;4.72;99.93;98045.88;5025802;28;20045;-62
2020/12/22 04:25:07;;;;;;;72.30;34.42;;;;;;;4.45;99.97;98018.47;5027571;28;20045;-62
2020/12/22 04:27:33;;;;;;;68.30;25.52;;;;;;;3.70;100.00;97892.03;5027554;28;20044;-61
2020/12/22 04:29:58;;;;;;;67.63;26.88;;;;;;;3.82;100.00;97919.75;5027612;28;20252;-61
2020/12/22 04:32:24;;;;;;;69.45;26.95;;;;;;;4.45;100.00;98068.69;5027157;28;20038;-63
2020/12/22 04:34:50;;;;;;;76.45;27.05;;;;;;;4.51;100.00;98067.44;5027578;28;20029;-62
2020/12/22 04:37:16;;;;;;;78.30;27.83;;;;;;;4.30;100.00;98077.19;5027202;28;20106;-62
2020/12/22 04:39:42;;;;;;;67.60;25.50;;;;;;;4.26;100.00;98076.19;5026857;28;20484;-63
2020/12/22 04:42:08;;;;;;;65.72;26.05;;;;;;;4.12;100.00;98069.06;5025936;28;20029;-63
2020/12/22 04:44:34;;;;;;;70.72;25.73;;;;;;;3.56;100.00;97999.97;5027146;28;20056;-61
2020/12/22 04:47:01;;;;;;;70.10;26.88;;;;;;;4.18;100.00;98074.16;5026800;28;20505;-61
2020/12/22 04:49:31;;;;;;;69.38;25.73;;;;;;;4.19;100.00;98080.44;5026876;28;20037;-61
2020/12/22 04:51:57;;;;;;;70.68;25.17;;;;;;;3.76;100.00;98077.13;5006667;28;20049;-61
2020/12/22 04:54:24;;;;;;;71.32;25.25;;;;;;;3.41;100.00;97998.34;5006925;28;20065;-61
2020/12/22 04:56:50;;;;;;;70.90;25.85;;;;;;;3.79;100.00;98038.19;5006989;28;20121;-62
2020/12/22 04:59:16;;;;;;;71.85;26.42;;;;;;;4.06;100.00;98060.13;5007118;28;20137;-62
2020/12/22 05:01:42;;;;;;;66.30;23.77;;;;;;;3.90;100.00;98078.00;5006499;28;20424;-62
2020/12/22 05:04:14;;;;;;;77.55;27.05;;;;;;;3.68;100.00;98064.16;5006884;28;20033;-63
2020/12/22 05:06:40;;;;;;;73.72;27.58;;;;;;;3.61;100.00;98013.59;5006518;28;20033;-62
2020/12/22 05:09:06;;;;;;;70.20;25.90;;;;;;;3.95;100.00;98079.81;5004763;28;20108;-62
2020/12/22 05:11:36;;;;;;;70.07;26.40;;;;;;;3.71;100.00;98066.28;5006321;28;20508;-61
2020/12/22 05:14:02;;;;;;;78.50;25.75;;;;;;;3.76;100.00;98088.09;5004979;28;20026;-62
2020/12/22 05:16:28;;;;;;;68.60;26.58;;;;;;;3.69;100.00;98065.75;5004904;28;20120;-62
2020/12/22 05:18:55;;;;;;;65.25;24.65;;;;;;;3.65;100.00;98088.59;5005222;28;20129;-62
2020/12/22 05:21:21;;;;;;;75.70;27.33;;;;;;;3.19;100.00;98036.50;5006553;28;20484;-62
2020/12/22 05:23:51;;;;;;;76.85;28.33;;;;;;;1.03;100.00;97646.34;5005055;28;20034;-62
2020/12/22 05:26:23;;;;;;;77.20;27.08;;;;;;;3.63;100.00;98088.88;5004582;28;20033;-63
2020/12/22 05:28:49;;;;;;;75.45;28.00;;;;;;;3.23;100.00;98034.78;5006640;28;20136;-62
2020/12/22 05:31:16;;;;;;;75.50;28.15;;;;;;;3.62;100.00;98087.25;5006539;28;20037;-62
2020/12/22 05:33:43;;;;;;;78.05;27.95;;;;;;;3.44;100.00;98068.94;5006438;28;20571;-62
2020/12/22 05:36:09;;;;;;;82.85;27.77;;;;;;;3.35;100.00;98070.72;5006451;28;20037;-63
2020/12/22 05:38:36;;;;;;;85.85;29.75;;;;;;;3.53;100.00;98089.03;5004446;28;20069;-62
2020/12/22 05:41:04;;;;;;;87.88;29.38;;;;;;;3.54;100.00;98096.16;5004384;28;20420;-63
2020/12/22 05:43:37;;;;;;;87.60;32.17;;;;;;;3.79;100.00;98103.94;5006069;28;20088;-62
2020/12/22 05:46:02;;;;;;;88.03;31.75;;;;;;;3.55;100.00;98043.00;5006114;28;20072;-63
2020/12/22 05:48:28;;;;;;;83.47;29.88;;;;;;;3.82;100.00;98037.59;5004747;28;20058;-63
2020/12/22 05:50:55;;;;;;;74.00;27.75;;;;;;;4.30;100.00;98087.38;5014813;28;20165;-63
2020/12/22 05:53:24;;;;;;;70.57;26.63;;;;;;;3.81;100.00;98016.75;5025333;28;20381;-65
2020/12/22 05:55:49;;;;;;;69.60;27.23;;;;;;;3.66;100.00;97973.22;5024104;28;20041;-63
2020/12/22 05:58:15;;;;;;;80.00;29.27;;;;;;;4.16;100.00;98068.16;5025728;28;20511;-62
2020/12/22 06:00:44;;;;;;;76.93;28.08;;;;;;;4.11;100.00;98095.66;5023738;28;20485;-63
2020/12/22 06:03:12;;;;;;;73.00;26.95;;;;;;;4.18;100.00;98090.59;5023792;28;20041;-62
2020/12/22 06:05:42;;;;;;;70.70;27.23;;;;;;;4.08;100.00;98099.03;5024061;28;20140;-63
2020/12/22 06:08:09;;;;;;;73.82;26.33;;;;;;;3.58;100.00;97986.78;5025810;28;20091;-63
2020/12/22 06:10:36;;;;;;;71.53;25.50;;;;;;;4.35;100.00;98096.28;5023949;28;20044;-64
2020/12/22 06:13:04;;;;;;;67.03;25.73;;;;;;;4.21;100.00;98065.31;5020579;28;20603;-63
2020/12/22 06:15:31;;;;;;;71.93;25.95;;;;;;;4.58;100.00;98098.00;5005437;28;20042;-63
2020/12/22 06:17:56;;;;;;;72.75;28.50;;;;;;;4.66;100.00;98102.78;5018519;28;20064;-63
2020/12/22 06:20:23;;;;;;;63.95;26.00;;;;;;;4.68;100.00;98100.56;5025011;28;20511;-63
2020/12/22 06:22:49;;;;;;;57.70;21.90;;;;;;;4.12;100.00;98039.75;5023880;28;20037;-63
2020/12/22 06:25:20;;;;;;;68.10;25.63;;;;;;;3.58;100.00;97949.28;5023471;28;20033;-63
2020/12/22 06:27:45;;;;;;;60.15;22.45;;;;;;;3.87;100.00;98031.19;5023621;28;20080;-63
2020/12/22 06:30:13;;;;;;;61.22;23.25;;;;;;;4.37;100.00;98110.53;5025085;28;20041;-64
2020/12/22 06:32:38;;;;;;;57.08;21.58;;;;;;;4.01;100.00;98106.00;5023064;28;20331;-63
2020/12/22 06:35:28;;;;;;;51.45;19.60;;;;;;;4.00;100.00;98107.94;5023184;28;20041;-63
2020/12/22 06:37:56;;;;;;;57.83;22.23;;;;;;;3.19;100.00;98014.59;5023386;28;20504;-64
2020/12/22 06:40:57;;;;;;;50.97;19.35;;;;;;;3.62;100.00;98105.63;5024722;28;20481;-62
2020/12/22 06:43:41;;;;;;;54.67;20.80;;;;;;;3.66;100.00;98099.25;5024682;28;20246;-61
2020/12/22 06:46:32;;;;;;;58.38;21.90;;;;;;;3.96;100.00;98104.19;5024973;28;20392;-62
2020/12/22 06:48:58;;;;;;;64.10;27.13;;;;;;;4.18;100.00;98090.59;5024647;28;20030;-62
2020/12/22 06:51:31;;;;;;;50.03;20.48;;;;;;;4.33;100.00;98098.53;5022686;28;20059;-62
2020/12/22 06:53:57;;;;;;;43.03;19.75;;;;;;;4.25;100.00;98074.56;5023182;28;20102;-62
2020/12/22 06:56:55;;;;;;;52.83;23.75;;;;;;;4.23;100.00;98054.88;5022777;28;20444;-62
2020/12/22 06:59:53;;;;;;;48.42;20.88;;;;;;;4.74;100.00;98105.94;5012427;28;20083;-62
2020/12/22 07:02:31;;;;;;;53.30;24.63;;;;;;;4.39;100.00;98020.50;5003540;28;20060;-63
2020/12/22 07:04:58;;;;;;;48.22;20.15;;;;;;;3.57;100.00;97942.19;5014236;28;20034;-63
2020/12/22 07:07:24;;;;;;;43.72;21.15;;;;;;;5.05;100.00;98112.38;5018258;28;20077;-61
2020/12/22 07:10:00;;;;;;;40.17;18.08;;;;;;;4.81;99.91;98120.03;5024150;28;20135;-65
2020/12/22 07:12:26;;;;;;;40.55;17.52;;;;;;;4.69;100.00;98113.13;5019199;28;20662;-61
2020/12/22 07:14:52;;;;;;;40.63;16.83;;;;;;;3.27;100.00;97914.56;5004452;28;20046;-64
2020/12/22 07:17:18;;;;;;;46.53;17.42;;;;;;;4.42;100.00;98112.34;5013409;28;20068;-63
2020/12/22 07:19:46;;;;;;;40.83;16.73;;;;;;;4.14;100.00;98084.09;5024037;28;20147;-63
2020/12/22 07:22:14;;;;;;;42.75;16.83;;;;;;;4.38;100.00;98095.69;5022424;28;20045;-64
2020/12/22 07:24:40;;;;;;;48.17;20.63;;;;;;;4.76;100.00;98092.72;5021674;28;20033;-61
2020/12/22 07:27:07;;;;;;;44.30;20.02;;;;;;;3.96;100.00;97922.47;5023129;28;20432;-61
2020/12/22 07:29:35;;;;;;;38.00;17.63;;;;;;;4.94;100.00;98059.63;5024318;28;20041;-62
2020/12/22 07:32:02;;;;;;;39.90;18.30;;;;;;;5.23;99.67;98094.94;5023637;28;20632;-63
2020/12/22 07:34:27;;;;;;;37.83;17.77;;;;;;;5.33;98.57;98094.69;5022267;28;20083;-63
2020/12/22 07:37:03;;;;;;;42.85;18.98;;;;;;;5.38;96.44;98065.19;5023998;28;20037;-66
2020/12/22 07:39:31;;;;;;;64.50;29.30;;;;;;;3.87;95.86;97837.41;5016627;28;20497;-67
2020/12/22 07:41:57;;;;;;;57.28;23.30;;;;;;;5.33;94.59;98048.81;5017910;28;20033;-64
2020/12/22 07:44:23;;;;;;;52.10;22.38;;;;;;;4.66;98.81;98064.38;5023209;28;20106;-64
2020/12/22 07:46:53;;;;;;;44.58;18.85;;;;;;;4.61;100.00;98094.69;5018770;28;20065;-67
2020/12/22 07:49:19;;;;;;;37.70;16.38;;;;;;;4.49;100.00;98096.28;5021748;28;20451;-64
2020/12/22 07:51:47;;;;;;;36.40;15.68;;;;;;;4.49;100.00;98090.78;5023802;28;20089;-62
2020/12/22 07:54:13;;;;;;;34.28;14.38;;;;;;;3.33;100.00;97916.06;5023778;28;20064;-62
2020/12/22 07:56:41;;;;;;;34.45;15.00;;;;;;;4.44;100.00;98105.44;5022266;28;20072;-65
2020/12/22 07:59:16;;;;;;;34.60;15.00;;;;;;;4.54;100.00;98077.81;5023980;28;20479;-65
2020/12/22 08:01:47;;;;;;;33.50;14.63;;;;;;;4.33;100.00;98087.56;5023301;28;20138;-67
2020/12/22 08:04:25;;;;;;;38.22;15.50;;;;;;;4.35;100.00;98090.00;5023826;28;20038;-67
2020/12/22 08:07:02;;;;;;;35.92;15.48;;;;;;;4.38;100.00;98098.44;5022589;28;20034;-63
2020/12/22 08:09:33;;;;;;;35.20;14.02;;;;;;;4.29;100.00;98081.06;5024199;28;20085;-65
2020/12/22 08:12:03;;;;;;;33.63;13.90;;;;;;;4.29;100.00;98069.28;5023966;28;20364;-65
2020/12/22 08:14:32;;;;;;;37.50;15.88;;;;;;;4.49;100.00;98083.38;5024134;28;20045;-65
2020/12/22 08:17:03;;;;;;;31.90;13.48;;;;;;;3.95;100.00;98036.75;5022386;28;20496;-64
2020/12/22 08:19:35;;;;;;;32.97;13.88;;;;;;;4.44;100.00;98061.53;5025860;28;20037;-64
2020/12/22 08:22:01;;;;;;;30.90;14.18;;;;;;;4.94;100.00;98097.25;5015296;28;20137;-67
2020/12/22 08:24:31;;;;;;;27.45;12.43;;;;;;;4.60;98.71;98016.22;5007540;28;20030;-66
2020/12/22 08:26:57;;;;;;;26.40;11.52;;;;;;;4.84;97.16;98059.84;5026627;28;20086;-67
2020/12/22 08:29:23;;;;;;;24.52;12.15;;;;;;;5.22;96.09;98082.31;5024702;28;20511;-65
2020/12/22 08:31:53;;;;;;;23.50;11.68;;;;;;;5.31;95.30;98069.50;5013967;28;20029;-64
2020/12/22 08:34:19;;;;;;;22.45;9.10;;;;;;;4.37;93.90;98011.78;5027178;28;20170;-65
2020/12/22 08:36:46;;;;;;;23.02;11.27;;;;;;;4.31;95.51;97991.09;5021461;28;20149;-68
2020/12/22 08:39:19;;;;;;;25.35;11.15;;;;;;;4.83;96.55;98068.41;5006827;28;20057;-65
2020/12/22 08:41:53;;;;;;;22.80;10.77;;;;;;;4.59;97.67;98066.72;5007235;28;20038;-64
2020/12/22 08:44:19;;;;;;;;;;;;;;;4.75;97.00;98066.38;5007657;28;20099;-64
2020/12/22 08:46:45;;;;;;;22.52;9.85;;;;;;;4.79;97.56;98068.19;5007025;28;19925;-65
2020/12/22 08:49:15;;;;;;;24.35;11.32;;;;;;;4.55;98.94;98090.38;5007074;28;20505;-64
2020/12/22 08:51:42;;;;;;;50.33;19.10;;;;;;;4.85;98.96;98066.16;5005126;28;20444;-64
2020/12/22 08:54:08;;;;;;;29.88;13.10;;;;;;;4.43;98.17;97998.75;5007089;28;20040;-64
2020/12/22 08:56:34;;;;;;;21.63;9.93;;;;;;;2.68;98.02;97715.66;5006702;28;20034;-65
2020/12/22 08:59:10;;;;;;;21.23;9.63;;;;;;;4.72;98.62;98023.09;5006993;28;20038;-65
2020/12/22 09:01:41;;;;;;;18.95;9.20;;;;;;;5.10;96.51;98051.88;5026457;28;20071;-64
2020/12/22 09:04:07;;;;;;;17.83;7.63;;;;;;;4.85;96.18;98055.19;5026839;28;20029;-64
2020/12/22 09:06:36;;;;;;;18.63;9.05;;;;;;;5.01;96.05;98042.75;5026387;28;20524;-65
2020/12/22 09:09:04;;;;;;;26.27;11.90;;;;;;;5.40;95.22;98040.97;5026752;28;20459;-64
2020/12/22 09:11:29;;;;;;;19.02;8.77;;;;;;;5.58;94.47;98041.88;5021022;28;20048;-64
2020/12/22 09:14:19;;;;;;;19.00;8.98;;;;;;;5.59;91.50;98021.53;5005496;28;20034;-64
2020/12/22 09:16:49;;;;;;;20.73;8.32;;;;;;;5.82;90.13;98031.38;5003492;28;20042;-65
2020/12/22 09:19:17;;;;;;;19.33;8.57;;;;;;;5.47;91.89;98029.53;5004824;28;20041;-65
2020/12/22 09:21:43;;;;;;;18.30;8.60;;;;;;;5.15;91.01;97955.63;5004512;28;20037;-65
2020/12/22 09:24:15;;;;;;;18.80;9.75;;;;;;;5.84;89.97;98029.13;5006402;28;20029;-66
2020/12/22 09:26:52;;;;;;;18.65;9.20;;;;;;;4.79;90.93;97930.19;5006216;28;20112;-65
2020/12/22 09:29:17;;;;;;;16.42;8.00;;;;;;;5.77;90.19;98013.03;5005965;28;20042;-64
2020/12/22 09:31:46;;;;;;;17.10;9.30;;;;;;;5.55;88.41;97938.06;5005891;28;20562;-64
2020/12/22 09:34:11;;;;;;;18.45;9.07;;;;;;;5.27;89.20;97870.72;5006290;28;20190;-65
2020/12/22 09:36:37;;;;;;;15.85;8.20;;;;;;;5.65;90.70;98020.25;5005802;28;20041;-66
2020/12/22 09:39:03;;;;;;;20.27;9.63;;;;;;;5.08;90.78;97950.56;5004603;28;20568;-66
2020/12/22 09:41:28;;;;;;;15.98;8.20;;;;;;;5.42;91.48;98015.91;5005873;28;20040;-64
2020/12/22 09:43:54;;;;;;;17.52;7.88;;;;;;;5.29;89.86;97972.84;5006044;28;20183;-64
2020/12/22 09:46:19;;;;;;;17.08;9.00;;;;;;;5.50;91.78;98015.97;5005633;28;20049;-64
2020/12/22 09:48:45;;;;;;;16.73;8.55;;;;;;;3.10;91.06;97622.28;5004429;28;20056;-64
2020/12/22 09:51:17;;;;;;;16.75;8.68;;;;;;;5.22;92.17;97955.97;5013241;28;20102;-65
2020/12/22 09:53:42;;;;;;;21.20;8.15;;;;;;;5.77;90.38;97963.56;5025738;28;20033;-65
2020/12/22 09:56:08;;;;;;;20.90;9.98;;;;;;;6.33;86.64;97997.75;5026025;28;20103;-65
2020/12/22 09:58:33;;;;;;;19.15;10.27;;;;;;;5.51;90.77;98003.03;5017524;28;20047;-62
2020/12/22 10:00:59;;;;;;;27.33;15.98;;;;;;;5.84;88.31;97979.63;5020288;28;20108;-64
2020/12/22 10:03:27;;;;;;;21.70;11.25;;;;;;;5.94;89.56;97990.38;5036133;28;20048;-63
2020/12/22 10:05:52;;;;;;;19.65;9.70;;;;;;;5.67;87.03;97897.91;5005205;28;20555;-63
2020/12/22 10:08:18;;;;;;;16.92;8.95;;;;;;;5.45;87.63;97954.84;5028381;28;20129;-63
2020/12/22 10:10:43;;;;;;;18.58;9.52;;;;;;;5.47;87.07;97903.16;5023013;28;20037;-65
2020/12/22 10:13:08;;;;;;;16.83;8.80;;;;;;;6.44;86.81;97991.66;5024361;28;20128;-64
2020/12/22 10:15:34;;;;;;;18.85;9.68;;;;;;;6.78;83.69;97977.94;5024929;28;20029;-62
2020/12/22 10:17:59;;;;;;;18.30;9.52;;;;;;;6.92;81.69;97967.59;5021952;28;20091;-63
2020/12/22 10:20:25;;;;;;;17.33;9.52;;;;;;;7.07;80.85;97972.59;5015656;28;20065;-61
2020/12/22 10:22:51;;;;;;;18.95;9.75;;;;;;;7.20;79.62;97974.38;5024930;28;20479;-62
2020/12/22 10:25:16;;;;;;;21.42;11.70;;;;;;;6.97;78.68;97909.56;5018781;28;20528;-67
2020/12/22 10:27:42;;;;;;;20.35;10.55;;;;;;;7.36;79.50;97972.75;5024882;28;20037;-62
2020/12/22 10:30:07;;;;;;;24.92;12.15;;;;;;;7.51;78.83;97958.41;5024769;28;20033;-65
2020/12/22 10:32:33;;;;;;;24.25;13.00;;;;;;;7.72;77.12;97959.34;5024682;28;20112;-64
2020/12/22 10:35:00;;;;;;;23.80;12.30;;;;;;;7.77;76.52;97954.78;5024166;28;20112;-62
2020/12/22 10:37:25;;;;;;;23.90;12.65;;;;;;;7.72;77.41;97942.81;5024209;28;20493;-63
2020/12/22 10:39:52;;;;;;;26.40;13.82;;;;;;;8.02;77.11;97945.59;5023502;28;20029;-64
2020/12/22 10:42:18;;;;;;;28.52;15.73;;;;;;;7.23;75.81;97813.91;5023466;28;20566;-62
2020/12/22 10:44:44;;;;;;;24.60;13.80;;;;;;;8.05;75.69;97955.94;5025229;28;20149;-63
2020/12/22 10:47:09;;;;;;;24.63;14.02;;;;;;;7.04;75.33;97791.44;5023589;28;20156;-62
2020/12/22 10:49:35;;;;;;;26.08;12.77;;;;;;;8.02;74.95;97945.59;5024169;28;20037;-60
2020/12/22 10:52:00;;;;;;;30.55;14.27;;;;;;;7.84;73.16;97894.41;5024500;28;20509;-62
2020/12/22 10:54:25;;;;;;;31.20;15.88;;;;;;;7.90;75.98;97938.03;5024652;28;20518;-59
2020/12/22 10:56:51;;;;;;;22.67;12.43;;;;;;;7.84;74.73;97910.97;5023740;28;20517;-61
2020/12/22 10:59:16;;;;;;;23.02;12.93;;;;;;;7.24;75.06;97820.22;5024201;28;20042;-67
2020/12/22 11:01:55;;;;;;;22.52;12.00;;;;;;;7.92;74.95;97924.69;5023871;28;20029;-62
2020/12/22 11:04:21;;;;;;;24.27;13.10;;;;;;;8.07;75.75;97937.13;5024446;28;20029;-62
2020/12/22 11:07:07;;;;;;;24.52;12.32;;;;;;;7.62;75.67;97854.91;5023449;28;20044;-58
2020/12/22 11:09:33;;;;;;;24.00;12.82;;;;;;;7.40;75.62;97797.28;5022934;28;20038;-64
2020/12/22 11:11:58;;;;;;;20.10;11.95;;;;;;;8.18;73.65;97932.84;5020369;28;20040;-60
2020/12/22 11:14:24;;;;;;;26.15;13.77;;;;;;;7.40;77.08;97935.09;5022809;28;20037;-62
2020/12/22 11:16:49;;;;;;;29.38;17.33;;;;;;;7.67;78.19;97931.94;5023638;28;20123;-62
2020/12/22 11:19:15;;;;;;;31.90;16.05;;;;;;;7.89;77.98;97935.59;5023994;28;20838;-62
2020/12/22 11:21:44;;;;;;;23.63;12.88;;;;;;;8.09;74.70;97923.81;5023935;28;20049;-61